sensor_id;sensor_type;location;lat;lon;timestamp;P1;durP1;ratioP1;P2;durP2;ratioP2
19149;SDS011;9707;49.158;8.632;2022-07-17T00:01:21;3.08;;;2.47;;
19149;SDS011;9707;49.158;8.632;2022-07-17T00:03:46;3.20;;;2.10;;
19149;SDS011;9707;49.158;8.632;2022-07-17T00:06:12;2.78;;;2.40;;
19149;SDS011;9707;49.158;8.632;2022-07-17T00:08:39;7.15;;;2.60;;
19149;SDS011;9707;49.158;8.632;2022-07-17T00:11:04;2.97;;;2.20;;
19149;SDS011;9707;49.158;8.632;2022-07-17T00:13:29;2.22;;;2.03;;
19149;SDS011;9707;49.158;8.632;2022-07-17T00:15:55;3.45;;;2.00;;
19149;SDS011;9707;49.158;8.632;2022-07-17T00:18:20;3.40;;;1.92;;
19149;SDS011;9707;49.158;8.632;2022-07-17T00:20:46;2.45;;;2.20;;
19149;SDS011;9707;49.158;8.632;2022-07-17T00:23:11;3.67;;;2.42;;
19149;SDS011;9707;49.158;8.632;2022-07-17T00:25:36;2.50;;;2.00;;
19149;SDS011;9707;49.158;8.632;2022-07-17T00:28:02;3.70;;;2.45;;
19149;SDS011;9707;49.158;8.632;2022-07-17T00:30:28;2.95;;;1.98;;
19149;SDS011;9707;49.158;8.632;2022-07-17T00:32:53;2.67;;;2.03;;
19149;SDS011;9707;49.158;8.632;2022-07-17T00:35:19;3.80;;;2.42;;
19149;SDS011;9707;49.158;8.632;2022-07-17T00:37:44;3.95;;;2.20;;
19149;SDS011;9707;49.158;8.632;2022-07-17T00:40:12;3.58;;;2.17;;
19149;SDS011;9707;49.158;8.632;2022-07-17T00:42:45;3.38;;;2.33;;
19149;SDS011;9707;49.158;8.632;2022-07-17T00:45:12;3.67;;;2.25;;
19149;SDS011;9707;49.158;8.632;2022-07-17T00:47:48;3.17;;;2.47;;
19149;SDS011;9707;49.158;8.632;2022-07-17T00:50:16;3.97;;;2.22;;
19149;SDS011;9707;49.158;8.632;2022-07-17T00:52:41;2.65;;;2.00;;
19149;SDS011;9707;49.158;8.632;2022-07-17T00:55:07;3.25;;;2.55;;
19149;SDS011;9707;49.158;8.632;2022-07-17T00:57:33;5.05;;;2.67;;
19149;SDS011;9707;49.158;8.632;2022-07-17T01:00:02;2.75;;;2.42;;
19149;SDS011;9707;49.158;8.632;2022-07-17T01:05:53;2.85;;;2.38;;
19149;SDS011;9707;49.158;8.632;2022-07-17T01:08:18;4.70;;;2.47;;
19149;SDS011;9707;49.158;8.632;2022-07-17T01:10:44;2.90;;;2.60;;
19149;SDS011;9707;49.158;8.632;2022-07-17T01:13:10;4.80;;;2.40;;
19149;SDS011;9707;49.158;8.632;2022-07-17T01:15:36;2.40;;;2.17;;
19149;SDS011;9707;49.158;8.632;2022-07-17T01:18:04;4.28;;;2.63;;
19149;SDS011;9707;49.158;8.632;2022-07-17T01:20:35;3.45;;;2.78;;
19149;SDS011;9707;49.158;8.632;2022-07-17T01:23:01;2.97;;;2.50;;
19149;SDS011;9707;49.158;8.632;2022-07-17T01:25:26;2.65;;;2.30;;
19149;SDS011;9707;49.158;8.632;2022-07-17T01:27:52;3.47;;;2.47;;
19149;SDS011;9707;49.158;8.632;2022-07-17T01:30:18;3.30;;;2.65;;
19149;SDS011;9707;49.158;8.632;2022-07-17T01:32:43;2.63;;;2.40;;
19149;SDS011;9707;49.158;8.632;2022-07-17T01:35:10;3.75;;;2.28;;
19149;SDS011;9707;49.158;8.632;2022-07-17T01:37:40;4.28;;;2.58;;
19149;SDS011;9707;49.158;8.632;2022-07-17T01:40:07;3.88;;;2.65;;
19149;SDS011;9707;49.158;8.632;2022-07-17T01:42:33;3.47;;;2.47;;
19149;SDS011;9707;49.158;8.632;2022-07-17T01:44:59;3.85;;;2.67;;
19149;SDS011;9707;49.158;8.632;2022-07-17T01:47:25;2.85;;;2.28;;
19149;SDS011;9707;49.158;8.632;2022-07-17T01:49:54;3.30;;;2.80;;
19149;SDS011;9707;49.158;8.632;2022-07-17T01:52:21;3.40;;;2.30;;
19149;SDS011;9707;49.158;8.632;2022-07-17T01:54:48;3.28;;;2.45;;
19149;SDS011;9707;49.158;8.632;2022-07-17T01:57:14;3.88;;;2.67;;
19149;SDS011;9707;49.158;8.632;2022-07-17T01:59:39;4.95;;;2.88;;
19149;SDS011;9707;49.158;8.632;2022-07-17T02:02:06;3.28;;;2.90;;
19149;SDS011;9707;49.158;8.632;2022-07-17T02:04:32;3.05;;;2.42;;
19149;SDS011;9707;49.158;8.632;2022-07-17T02:06:58;4.15;;;2.72;;
19149;SDS011;9707;49.158;8.632;2022-07-17T02:09:23;6.18;;;2.88;;
19149;SDS011;9707;49.158;8.632;2022-07-17T02:11:49;3.70;;;2.45;;
19149;SDS011;9707;49.158;8.632;2022-07-17T02:14:14;2.90;;;2.38;;
19149;SDS011;9707;49.158;8.632;2022-07-17T02:16:40;4.45;;;2.65;;
19149;SDS011;9707;49.158;8.632;2022-07-17T02:19:06;6.05;;;2.90;;
19149;SDS011;9707;49.158;8.632;2022-07-17T02:21:31;4.63;;;2.72;;
19149;SDS011;9707;49.158;8.632;2022-07-17T02:23:56;3.85;;;3.35;;
19149;SDS011;9707;49.158;8.632;2022-07-17T02:26:22;3.08;;;2.70;;
19149;SDS011;9707;49.158;8.632;2022-07-17T02:28:47;5.22;;;2.97;;
19149;SDS011;9707;49.158;8.632;2022-07-17T02:31:13;3.45;;;2.90;;
19149;SDS011;9707;49.158;8.632;2022-07-17T02:33:38;3.90;;;3.03;;
19149;SDS011;9707;49.158;8.632;2022-07-17T02:36:04;4.65;;;2.92;;
19149;SDS011;9707;49.158;8.632;2022-07-17T02:38:30;3.70;;;2.65;;
19149;SDS011;9707;49.158;8.632;2022-07-17T02:40:55;3.15;;;2.85;;
19149;SDS011;9707;49.158;8.632;2022-07-17T02:43:20;3.03;;;2.80;;
19149;SDS011;9707;49.158;8.632;2022-07-17T02:45:46;3.67;;;2.70;;
19149;SDS011;9707;49.158;8.632;2022-07-17T02:48:11;3.70;;;2.88;;
19149;SDS011;9707;49.158;8.632;2022-07-17T02:50:36;3.47;;;2.78;;
19149;SDS011;9707;49.158;8.632;2022-07-17T02:53:02;4.28;;;3.67;;
19149;SDS011;9707;49.158;8.632;2022-07-17T02:55:27;3.97;;;2.80;;
19149;SDS011;9707;49.158;8.632;2022-07-17T02:57:53;2.83;;;2.63;;
19149;SDS011;9707;49.158;8.632;2022-07-17T03:00:19;5.18;;;2.90;;
19149;SDS011;9707;49.158;8.632;2022-07-17T03:02:45;4.72;;;3.03;;
19149;SDS011;9707;49.158;8.632;2022-07-17T03:05:12;3.53;;;3.00;;
19149;SDS011;9707;49.158;8.632;2022-07-17T03:07:39;3.92;;;2.97;;
19149;SDS011;9707;49.158;8.632;2022-07-17T03:10:05;5.68;;;3.28;;
19149;SDS011;9707;49.158;8.632;2022-07-17T03:12:31;4.88;;;2.88;;
19149;SDS011;9707;49.158;8.632;2022-07-17T03:14:57;4.53;;;3.08;;
19149;SDS011;9707;49.158;8.632;2022-07-17T03:17:22;5.97;;;3.13;;
19149;SDS011;9707;49.158;8.632;2022-07-17T03:19:47;2.97;;;2.42;;
19149;SDS011;9707;49.158;8.632;2022-07-17T03:22:13;4.88;;;2.72;;
19149;SDS011;9707;49.158;8.632;2022-07-17T03:24:38;4.25;;;2.40;;
19149;SDS011;9707;49.158;8.632;2022-07-17T03:27:04;3.70;;;2.30;;
19149;SDS011;9707;49.158;8.632;2022-07-17T03:29:29;3.83;;;2.90;;
19149;SDS011;9707;49.158;8.632;2022-07-17T03:31:55;3.25;;;2.83;;
19149;SDS011;9707;49.158;8.632;2022-07-17T03:34:20;3.58;;;3.25;;
19149;SDS011;9707;49.158;8.632;2022-07-17T03:36:45;5.03;;;2.92;;
19149;SDS011;9707;49.158;8.632;2022-07-17T03:39:11;3.17;;;2.60;;
19149;SDS011;9707;49.158;8.632;2022-07-17T03:41:37;4.13;;;2.83;;
19149;SDS011;9707;49.158;8.632;2022-07-17T03:44:02;3.55;;;2.92;;
19149;SDS011;9707;49.158;8.632;2022-07-17T03:46:28;2.35;;;2.05;;
19149;SDS011;9707;49.158;8.632;2022-07-17T03:48:53;3.80;;;2.63;;
19149;SDS011;9707;49.158;8.632;2022-07-17T03:51:19;4.82;;;2.45;;
19149;SDS011;9707;49.158;8.632;2022-07-17T03:53:44;3.85;;;2.45;;
19149;SDS011;9707;49.158;8.632;2022-07-17T03:56:10;3.03;;;2.30;;
19149;SDS011;9707;49.158;8.632;2022-07-17T03:58:35;3.65;;;2.60;;
19149;SDS011;9707;49.158;8.632;2022-07-17T04:01:01;3.15;;;2.08;;
19149;SDS011;9707;49.158;8.632;2022-07-17T04:03:26;3.40;;;2.42;;
19149;SDS011;9707;49.158;8.632;2022-07-17T04:05:52;3.08;;;2.45;;
19149;SDS011;9707;49.158;8.632;2022-07-17T04:08:17;4.85;;;2.78;;
19149;SDS011;9707;49.158;8.632;2022-07-17T04:10:43;4.20;;;3.35;;
19149;SDS011;9707;49.158;8.632;2022-07-17T04:13:09;4.50;;;2.78;;
19149;SDS011;9707;49.158;8.632;2022-07-17T04:15:35;5.38;;;2.55;;
19149;SDS011;9707;49.158;8.632;2022-07-17T04:18:19;3.67;;;2.85;;
19149;SDS011;9707;49.158;8.632;2022-07-17T04:20:48;3.85;;;2.90;;
19149;SDS011;9707;49.158;8.632;2022-07-17T04:23:14;2.60;;;2.40;;
19149;SDS011;9707;49.158;8.632;2022-07-17T04:25:40;2.80;;;2.50;;
19149;SDS011;9707;49.158;8.632;2022-07-17T04:28:06;2.95;;;2.13;;
19149;SDS011;9707;49.158;8.632;2022-07-17T04:30:32;5.82;;;2.97;;
19149;SDS011;9707;49.158;8.632;2022-07-17T04:32:58;4.32;;;2.47;;
19149;SDS011;9707;49.158;8.632;2022-07-17T04:35:23;2.85;;;2.42;;
19149;SDS011;9707;49.158;8.632;2022-07-17T04:37:49;3.72;;;2.83;;
19149;SDS011;9707;49.158;8.632;2022-07-17T04:40:14;4.22;;;2.85;;
19149;SDS011;9707;49.158;8.632;2022-07-17T04:42:40;3.10;;;2.80;;
19149;SDS011;9707;49.158;8.632;2022-07-17T04:45:05;5.97;;;2.33;;
19149;SDS011;9707;49.158;8.632;2022-07-17T04:47:31;2.78;;;2.30;;
19149;SDS011;9707;49.158;8.632;2022-07-17T04:49:57;3.08;;;2.40;;
19149;SDS011;9707;49.158;8.632;2022-07-17T04:52:22;5.13;;;2.42;;
19149;SDS011;9707;49.158;8.632;2022-07-17T04:54:47;3.30;;;2.25;;
19149;SDS011;9707;49.158;8.632;2022-07-17T04:57:13;3.42;;;2.35;;
19149;SDS011;9707;49.158;8.632;2022-07-17T04:59:38;4.07;;;2.50;;
19149;SDS011;9707;49.158;8.632;2022-07-17T05:02:03;3.58;;;2.17;;
19149;SDS011;9707;49.158;8.632;2022-07-17T05:04:29;3.20;;;2.85;;
19149;SDS011;9707;49.158;8.632;2022-07-17T05:06:55;2.70;;;2.42;;
19149;SDS011;9707;49.158;8.632;2022-07-17T05:09:20;3.10;;;2.35;;
19149;SDS011;9707;49.158;8.632;2022-07-17T05:11:45;2.67;;;2.28;;
19149;SDS011;9707;49.158;8.632;2022-07-17T05:14:11;3.47;;;2.35;;
19149;SDS011;9707;49.158;8.632;2022-07-17T05:16:36;4.40;;;2.17;;
19149;SDS011;9707;49.158;8.632;2022-07-17T05:19:01;4.43;;;2.22;;
19149;SDS011;9707;49.158;8.632;2022-07-17T05:21:27;3.00;;;2.13;;
19149;SDS011;9707;49.158;8.632;2022-07-17T05:23:52;2.85;;;1.92;;
19149;SDS011;9707;49.158;8.632;2022-07-17T05:26:18;5.00;;;2.08;;
19149;SDS011;9707;49.158;8.632;2022-07-17T05:28:43;3.70;;;1.95;;
19149;SDS011;9707;49.158;8.632;2022-07-17T05:31:08;2.90;;;1.83;;
19149;SDS011;9707;49.158;8.632;2022-07-17T05:33:34;2.40;;;1.67;;
19149;SDS011;9707;49.158;8.632;2022-07-17T05:35:59;3.08;;;1.60;;
19149;SDS011;9707;49.158;8.632;2022-07-17T05:38:25;3.03;;;1.75;;
19149;SDS011;9707;49.158;8.632;2022-07-17T05:40:51;2.45;;;1.50;;
19149;SDS011;9707;49.158;8.632;2022-07-17T05:43:16;1.85;;;1.48;;
19149;SDS011;9707;49.158;8.632;2022-07-17T05:45:41;1.73;;;1.48;;
19149;SDS011;9707;49.158;8.632;2022-07-17T05:48:07;3.30;;;1.65;;
19149;SDS011;9707;49.158;8.632;2022-07-17T05:50:32;2.25;;;1.80;;
19149;SDS011;9707;49.158;8.632;2022-07-17T05:52:58;2.70;;;1.80;;
19149;SDS011;9707;49.158;8.632;2022-07-17T05:55:24;4.00;;;1.50;;
19149;SDS011;9707;49.158;8.632;2022-07-17T05:57:49;3.92;;;1.75;;
19149;SDS011;9707;49.158;8.632;2022-07-17T06:00:15;3.78;;;1.58;;
19149;SDS011;9707;49.158;8.632;2022-07-17T06:02:40;3.25;;;1.77;;
19149;SDS011;9707;49.158;8.632;2022-07-17T06:05:06;3.67;;;1.75;;
19149;SDS011;9707;49.158;8.632;2022-07-17T06:07:32;2.63;;;1.63;;
19149;SDS011;9707;49.158;8.632;2022-07-17T06:09:58;2.97;;;1.73;;
19149;SDS011;9707;49.158;8.632;2022-07-17T06:12:23;3.67;;;2.00;;
19149;SDS011;9707;49.158;8.632;2022-07-17T06:14:48;3.05;;;2.10;;
19149;SDS011;9707;49.158;8.632;2022-07-17T06:17:14;2.30;;;1.60;;
19149;SDS011;9707;49.158;8.632;2022-07-17T06:19:39;2.50;;;1.38;;
19149;SDS011;9707;49.158;8.632;2022-07-17T06:22:05;1.70;;;1.30;;
19149;SDS011;9707;49.158;8.632;2022-07-17T06:24:30;3.65;;;1.73;;
19149;SDS011;9707;49.158;8.632;2022-07-17T06:26:55;2.30;;;1.27;;
19149;SDS011;9707;49.158;8.632;2022-07-17T06:29:21;2.13;;;1.05;;
19149;SDS011;9707;49.158;8.632;2022-07-17T06:31:46;3.72;;;1.15;;
19149;SDS011;9707;49.158;8.632;2022-07-17T06:34:11;2.22;;;1.27;;
19149;SDS011;9707;49.158;8.632;2022-07-17T06:36:36;4.45;;;1.27;;
19149;SDS011;9707;49.158;8.632;2022-07-17T06:39:02;2.08;;;1.40;;
19149;SDS011;9707;49.158;8.632;2022-07-17T06:41:27;1.50;;;1.10;;
19149;SDS011;9707;49.158;8.632;2022-07-17T06:43:53;1.98;;;1.15;;
19149;SDS011;9707;49.158;8.632;2022-07-17T06:46:18;2.72;;;1.00;;
19149;SDS011;9707;49.158;8.632;2022-07-17T06:48:43;2.38;;;1.50;;
19149;SDS011;9707;49.158;8.632;2022-07-17T06:51:09;2.65;;;0.90;;
19149;SDS011;9707;49.158;8.632;2022-07-17T06:53:34;2.33;;;0.90;;
19149;SDS011;9707;49.158;8.632;2022-07-17T06:55:59;2.42;;;1.00;;
19149;SDS011;9707;49.158;8.632;2022-07-17T06:58:25;1.48;;;1.05;;
19149;SDS011;9707;49.158;8.632;2022-07-17T07:00:50;4.03;;;1.00;;
19149;SDS011;9707;49.158;8.632;2022-07-17T07:03:16;3.22;;;1.00;;
19149;SDS011;9707;49.158;8.632;2022-07-17T07:05:41;1.75;;;1.00;;
19149;SDS011;9707;49.158;8.632;2022-07-17T07:08:06;3.10;;;0.88;;
19149;SDS011;9707;49.158;8.632;2022-07-17T07:10:31;2.92;;;1.02;;
19149;SDS011;9707;49.158;8.632;2022-07-17T07:12:57;2.08;;;1.02;;
19149;SDS011;9707;49.158;8.632;2022-07-17T07:15:22;2.25;;;0.93;;
19149;SDS011;9707;49.158;8.632;2022-07-17T07:17:49;3.35;;;1.02;;
19149;SDS011;9707;49.158;8.632;2022-07-17T07:20:14;2.33;;;1.00;;
19149;SDS011;9707;49.158;8.632;2022-07-17T07:22:39;2.40;;;0.90;;
19149;SDS011;9707;49.158;8.632;2022-07-17T07:25:05;2.70;;;0.70;;
19149;SDS011;9707;49.158;8.632;2022-07-17T07:27:31;1.15;;;0.82;;
19149;SDS011;9707;49.158;8.632;2022-07-17T07:29:56;1.23;;;0.93;;
19149;SDS011;9707;49.158;8.632;2022-07-17T07:32:22;1.70;;;1.00;;
19149;SDS011;9707;49.158;8.632;2022-07-17T07:34:48;1.55;;;0.85;;
19149;SDS011;9707;49.158;8.632;2022-07-17T07:37:13;1.90;;;0.82;;
19149;SDS011;9707;49.158;8.632;2022-07-17T07:39:39;1.73;;;0.82;;
19149;SDS011;9707;49.158;8.632;2022-07-17T07:42:04;2.08;;;0.77;;
19149;SDS011;9707;49.158;8.632;2022-07-17T07:44:30;1.75;;;0.93;;
19149;SDS011;9707;49.158;8.632;2022-07-17T07:46:55;2.85;;;1.35;;
19149;SDS011;9707;49.158;8.632;2022-07-17T07:49:21;2.35;;;1.00;;
19149;SDS011;9707;49.158;8.632;2022-07-17T07:51:46;3.28;;;1.10;;
19149;SDS011;9707;49.158;8.632;2022-07-17T07:54:11;4.60;;;1.10;;
19149;SDS011;9707;49.158;8.632;2022-07-17T07:56:37;2.75;;;1.05;;
19149;SDS011;9707;49.158;8.632;2022-07-17T07:59:03;1.92;;;0.90;;
19149;SDS011;9707;49.158;8.632;2022-07-17T08:01:28;1.27;;;0.90;;
19149;SDS011;9707;49.158;8.632;2022-07-17T08:03:55;1.50;;;1.10;;
19149;SDS011;9707;49.158;8.632;2022-07-17T08:06:20;2.72;;;1.23;;
19149;SDS011;9707;49.158;8.632;2022-07-17T08:08:45;7.70;;;1.40;;
19149;SDS011;9707;49.158;8.632;2022-07-17T08:11:11;3.70;;;0.88;;
19149;SDS011;9707;49.158;8.632;2022-07-17T08:13:36;1.98;;;1.10;;
19149;SDS011;9707;49.158;8.632;2022-07-17T08:16:02;1.83;;;1.25;;
19149;SDS011;9707;49.158;8.632;2022-07-17T08:18:27;3.30;;;1.00;;
19149;SDS011;9707;49.158;8.632;2022-07-17T08:20:53;3.95;;;0.90;;
19149;SDS011;9707;49.158;8.632;2022-07-17T08:23:18;1.70;;;0.82;;
19149;SDS011;9707;49.158;8.632;2022-07-17T08:25:44;3.58;;;1.20;;
19149;SDS011;9707;49.158;8.632;2022-07-17T08:28:12;3.10;;;0.90;;
19149;SDS011;9707;49.158;8.632;2022-07-17T08:30:38;2.75;;;1.20;;
19149;SDS011;9707;49.158;8.632;2022-07-17T08:33:04;4.88;;;0.98;;
19149;SDS011;9707;49.158;8.632;2022-07-17T08:35:30;2.15;;;1.00;;
19149;SDS011;9707;49.158;8.632;2022-07-17T08:37:56;1.27;;;1.10;;
19149;SDS011;9707;49.158;8.632;2022-07-17T08:40:26;1.77;;;1.02;;
19149;SDS011;9707;49.158;8.632;2022-07-17T08:42:56;0.98;;;0.90;;
19149;SDS011;9707;49.158;8.632;2022-07-17T08:45:23;2.95;;;1.10;;
19149;SDS011;9707;49.158;8.632;2022-07-17T08:47:52;2.92;;;1.00;;
19149;SDS011;9707;49.158;8.632;2022-07-17T08:50:29;4.72;;;1.20;;
19149;SDS011;9707;49.158;8.632;2022-07-17T08:52:56;1.60;;;0.68;;
19149;SDS011;9707;49.158;8.632;2022-07-17T08:55:22;2.15;;;0.85;;
19149;SDS011;9707;49.158;8.632;2022-07-17T08:57:48;1.15;;;0.82;;
19149;SDS011;9707;49.158;8.632;2022-07-17T09:00:14;1.65;;;0.90;;
19149;SDS011;9707;49.158;8.632;2022-07-17T09:05:25;1.63;;;1.10;;
19149;SDS011;9707;49.158;8.632;2022-07-17T09:07:55;2.15;;;1.00;;
19149;SDS011;9707;49.158;8.632;2022-07-17T09:10:31;2.72;;;0.90;;
19149;SDS011;9707;49.158;8.632;2022-07-17T09:12:56;1.90;;;0.90;;
19149;SDS011;9707;49.158;8.632;2022-07-17T09:15:23;1.92;;;0.73;;
19149;SDS011;9707;49.158;8.632;2022-07-17T09:17:52;1.98;;;0.82;;
19149;SDS011;9707;49.158;8.632;2022-07-17T09:20:19;1.98;;;0.80;;
19149;SDS011;9707;49.158;8.632;2022-07-17T09:22:59;3.30;;;0.70;;
19149;SDS011;9707;49.158;8.632;2022-07-17T09:25:39;2.20;;;1.00;;
19149;SDS011;9707;49.158;8.632;2022-07-17T09:28:07;2.15;;;0.73;;
19149;SDS011;9707;49.158;8.632;2022-07-17T09:30:39;2.95;;;1.02;;
19149;SDS011;9707;49.158;8.632;2022-07-17T09:33:07;2.00;;;0.90;;
19149;SDS011;9707;49.158;8.632;2022-07-17T09:35:43;1.50;;;0.90;;
19149;SDS011;9707;49.158;8.632;2022-07-17T09:38:10;1.30;;;1.00;;
19149;SDS011;9707;49.158;8.632;2022-07-17T09:40:35;2.13;;;1.10;;
19149;SDS011;9707;49.158;8.632;2022-07-17T09:43:19;2.95;;;1.08;;
19149;SDS011;9707;49.158;8.632;2022-07-17T09:45:44;1.10;;;0.90;;
19149;SDS011;9707;49.158;8.632;2022-07-17T09:48:10;3.45;;;0.98;;
19149;SDS011;9707;49.158;8.632;2022-07-17T09:50:37;3.13;;;1.00;;
19149;SDS011;9707;49.158;8.632;2022-07-17T09:53:02;1.27;;;0.80;;
19149;SDS011;9707;49.158;8.632;2022-07-17T09:55:30;3.72;;;0.90;;
19149;SDS011;9707;49.158;8.632;2022-07-17T09:57:59;1.25;;;0.68;;
19149;SDS011;9707;49.158;8.632;2022-07-17T10:00:27;1.00;;;0.90;;
19149;SDS011;9707;49.158;8.632;2022-07-17T10:02:52;3.08;;;0.82;;
19149;SDS011;9707;49.158;8.632;2022-07-17T10:05:18;1.35;;;0.80;;
19149;SDS011;9707;49.158;8.632;2022-07-17T10:07:44;1.63;;;0.90;;
19149;SDS011;9707;49.158;8.632;2022-07-17T10:10:11;2.38;;;0.90;;
19149;SDS011;9707;49.158;8.632;2022-07-17T10:12:39;2.35;;;0.90;;
19149;SDS011;9707;49.158;8.632;2022-07-17T10:15:07;3.67;;;0.90;;
19149;SDS011;9707;49.158;8.632;2022-07-17T10:17:33;1.70;;;1.00;;
19149;SDS011;9707;49.158;8.632;2022-07-17T10:19:59;3.60;;;0.90;;
19149;SDS011;9707;49.158;8.632;2022-07-17T10:22:24;2.20;;;0.77;;
19149;SDS011;9707;49.158;8.632;2022-07-17T10:24:55;2.05;;;1.00;;
19149;SDS011;9707;49.158;8.632;2022-07-17T10:30:07;1.58;;;0.90;;
19149;SDS011;9707;49.158;8.632;2022-07-17T10:32:38;2.25;;;0.88;;
19149;SDS011;9707;49.158;8.632;2022-07-17T10:35:05;2.45;;;1.00;;
19149;SDS011;9707;49.158;8.632;2022-07-17T10:37:38;2.20;;;0.82;;
19149;SDS011;9707;49.158;8.632;2022-07-17T10:45:39;1.73;;;1.00;;
19149;SDS011;9707;49.158;8.632;2022-07-17T10:50:44;1.42;;;0.85;;
19149;SDS011;9707;49.158;8.632;2022-07-17T10:56:07;2.78;;;0.85;;
19149;SDS011;9707;49.158;8.632;2022-07-17T10:58:38;2.33;;;0.95;;
19149;SDS011;9707;49.158;8.632;2022-07-17T11:08:56;1.98;;;1.00;;
19149;SDS011;9707;49.158;8.632;2022-07-17T11:14:33;1.15;;;0.82;;
19149;SDS011;9707;49.158;8.632;2022-07-17T11:16:53;1.58;;;0.88;;
19149;SDS011;9707;49.158;8.632;2022-07-17T11:21:52;1.40;;;0.85;;
19149;SDS011;9707;49.158;8.632;2022-07-17T11:24:19;0.88;;;0.70;;
19149;SDS011;9707;49.158;8.632;2022-07-17T11:26:44;1.45;;;0.85;;
19149;SDS011;9707;49.158;8.632;2022-07-17T11:29:14;1.58;;;0.68;;
19149;SDS011;9707;49.158;8.632;2022-07-17T11:31:39;2.25;;;0.85;;
19149;SDS011;9707;49.158;8.632;2022-07-17T11:34:06;1.77;;;0.80;;
19149;SDS011;9707;49.158;8.632;2022-07-17T11:36:38;0.82;;;0.63;;
19149;SDS011;9707;49.158;8.632;2022-07-17T11:39:09;3.33;;;1.00;;
19149;SDS011;9707;49.158;8.632;2022-07-17T11:44:10;2.08;;;0.80;;
19149;SDS011;9707;49.158;8.632;2022-07-17T11:46:37;1.15;;;0.75;;
19149;SDS011;9707;49.158;8.632;2022-07-17T11:49:05;1.83;;;0.80;;
19149;SDS011;9707;49.158;8.632;2022-07-17T11:51:44;1.63;;;0.93;;
19149;SDS011;9707;49.158;8.632;2022-07-17T11:54:13;1.50;;;0.80;;
19149;SDS011;9707;49.158;8.632;2022-07-17T11:56:41;1.23;;;0.73;;
19149;SDS011;9707;49.158;8.632;2022-07-17T11:59:07;1.45;;;0.60;;
19149;SDS011;9707;49.158;8.632;2022-07-17T12:01:37;2.33;;;1.10;;
19149;SDS011;9707;49.158;8.632;2022-07-17T12:04:07;2.58;;;0.90;;
19149;SDS011;9707;49.158;8.632;2022-07-17T12:06:35;1.70;;;1.00;;
19149;SDS011;9707;49.158;8.632;2022-07-17T12:09:00;1.52;;;0.70;;
19149;SDS011;9707;49.158;8.632;2022-07-17T12:11:25;1.58;;;0.88;;
19149;SDS011;9707;49.158;8.632;2022-07-17T12:13:51;3.30;;;1.02;;
19149;SDS011;9707;49.158;8.632;2022-07-17T12:18:55;2.50;;;0.80;;
19149;SDS011;9707;49.158;8.632;2022-07-17T12:21:22;1.30;;;0.90;;
19149;SDS011;9707;49.158;8.632;2022-07-17T12:23:55;1.10;;;1.00;;
19149;SDS011;9707;49.158;8.632;2022-07-17T12:26:23;1.95;;;1.05;;
19149;SDS011;9707;49.158;8.632;2022-07-17T12:28:48;1.65;;;0.77;;
19149;SDS011;9707;49.158;8.632;2022-07-17T12:31:14;2.33;;;0.90;;
19149;SDS011;9707;49.158;8.632;2022-07-17T12:33:40;1.08;;;0.80;;
19149;SDS011;9707;49.158;8.632;2022-07-17T12:36:06;4.28;;;1.00;;
19149;SDS011;9707;49.158;8.632;2022-07-17T12:38:32;1.00;;;0.60;;
19149;SDS011;9707;49.158;8.632;2022-07-17T12:40:57;2.00;;;0.95;;
19149;SDS011;9707;49.158;8.632;2022-07-17T12:43:23;0.98;;;0.80;;
19149;SDS011;9707;49.158;8.632;2022-07-17T12:45:49;1.48;;;1.08;;
19149;SDS011;9707;49.158;8.632;2022-07-17T12:48:14;2.78;;;0.85;;
19149;SDS011;9707;49.158;8.632;2022-07-17T12:50:40;2.67;;;1.02;;
19149;SDS011;9707;49.158;8.632;2022-07-17T12:53:05;0.93;;;0.70;;
19149;SDS011;9707;49.158;8.632;2022-07-17T12:55:31;1.52;;;1.00;;
19149;SDS011;9707;49.158;8.632;2022-07-17T12:57:57;0.98;;;0.70;;
19149;SDS011;9707;49.158;8.632;2022-07-17T13:00:23;2.83;;;0.80;;
19149;SDS011;9707;49.158;8.632;2022-07-17T13:02:48;1.40;;;0.90;;
19149;SDS011;9707;49.158;8.632;2022-07-17T13:05:14;1.52;;;0.82;;
19149;SDS011;9707;49.158;8.632;2022-07-17T13:07:40;1.33;;;0.90;;
19149;SDS011;9707;49.158;8.632;2022-07-17T13:10:05;1.60;;;1.10;;
19149;SDS011;9707;49.158;8.632;2022-07-17T13:12:31;1.40;;;0.93;;
19149;SDS011;9707;49.158;8.632;2022-07-17T13:14:56;1.05;;;0.90;;
19149;SDS011;9707;49.158;8.632;2022-07-17T13:17:22;2.08;;;0.93;;
19149;SDS011;9707;49.158;8.632;2022-07-17T13:19:47;1.17;;;0.93;;
19149;SDS011;9707;49.158;8.632;2022-07-17T13:22:13;1.02;;;0.85;;
19149;SDS011;9707;49.158;8.632;2022-07-17T13:24:39;1.92;;;0.90;;
19149;SDS011;9707;49.158;8.632;2022-07-17T13:27:04;1.88;;;0.90;;
19149;SDS011;9707;49.158;8.632;2022-07-17T13:29:29;0.88;;;0.65;;
19149;SDS011;9707;49.158;8.632;2022-07-17T13:31:55;1.00;;;0.60;;
19149;SDS011;9707;49.158;8.632;2022-07-17T13:34:21;1.23;;;0.90;;
19149;SDS011;9707;49.158;8.632;2022-07-17T13:36:47;1.70;;;0.82;;
19149;SDS011;9707;49.158;8.632;2022-07-17T13:39:13;2.13;;;0.80;;
19149;SDS011;9707;49.158;8.632;2022-07-17T13:41:39;2.03;;;0.90;;
19149;SDS011;9707;49.158;8.632;2022-07-17T13:44:05;2.00;;;0.80;;
19149;SDS011;9707;49.158;8.632;2022-07-17T13:46:31;3.35;;;1.10;;
19149;SDS011;9707;49.158;8.632;2022-07-17T13:48:57;2.70;;;1.15;;
19149;SDS011;9707;49.158;8.632;2022-07-17T13:51:22;1.30;;;0.90;;
19149;SDS011;9707;49.158;8.632;2022-07-17T13:53:48;0.80;;;0.70;;
19149;SDS011;9707;49.158;8.632;2022-07-17T13:56:13;3.72;;;0.90;;
19149;SDS011;9707;49.158;8.632;2022-07-17T13:58:39;2.10;;;0.98;;
19149;SDS011;9707;49.158;8.632;2022-07-17T14:01:04;0.63;;;0.60;;
19149;SDS011;9707;49.158;8.632;2022-07-17T14:03:30;1.10;;;0.80;;
19149;SDS011;9707;49.158;8.632;2022-07-17T14:05:55;2.80;;;0.80;;
19149;SDS011;9707;49.158;8.632;2022-07-17T14:08:20;2.35;;;1.02;;
19149;SDS011;9707;49.158;8.632;2022-07-17T14:10:46;4.45;;;0.95;;
19149;SDS011;9707;49.158;8.632;2022-07-17T14:13:11;1.15;;;0.63;;
19149;SDS011;9707;49.158;8.632;2022-07-17T14:15:37;2.03;;;0.90;;
19149;SDS011;9707;49.158;8.632;2022-07-17T14:18:02;1.70;;;1.20;;
19149;SDS011;9707;49.158;8.632;2022-07-17T14:20:28;1.42;;;1.00;;
19149;SDS011;9707;49.158;8.632;2022-07-17T14:22:53;2.15;;;0.95;;
19149;SDS011;9707;49.158;8.632;2022-07-17T14:25:19;1.65;;;1.05;;
19149;SDS011;9707;49.158;8.632;2022-07-17T14:27:44;1.50;;;1.13;;
19149;SDS011;9707;49.158;8.632;2022-07-17T14:30:10;5.20;;;1.20;;
19149;SDS011;9707;49.158;8.632;2022-07-17T14:32:36;2.03;;;1.00;;
19149;SDS011;9707;49.158;8.632;2022-07-17T14:35:02;2.28;;;0.90;;
19149;SDS011;9707;49.158;8.632;2022-07-17T14:37:28;3.08;;;0.90;;
19149;SDS011;9707;49.158;8.632;2022-07-17T14:39:54;6.68;;;1.08;;
19149;SDS011;9707;49.158;8.632;2022-07-17T14:42:20;2.47;;;1.05;;
19149;SDS011;9707;49.158;8.632;2022-07-17T14:44:45;1.50;;;0.90;;
19149;SDS011;9707;49.158;8.632;2022-07-17T14:47:10;1.30;;;0.90;;
19149;SDS011;9707;49.158;8.632;2022-07-17T14:49:36;1.65;;;1.00;;
19149;SDS011;9707;49.158;8.632;2022-07-17T14:52:01;2.28;;;0.90;;
19149;SDS011;9707;49.158;8.632;2022-07-17T14:54:27;3.67;;;1.02;;
19149;SDS011;9707;49.158;8.632;2022-07-17T14:56:52;1.90;;;1.00;;
19149;SDS011;9707;49.158;8.632;2022-07-17T14:59:18;1.30;;;1.17;;
19149;SDS011;9707;49.158;8.632;2022-07-17T15:01:43;1.10;;;0.88;;
19149;SDS011;9707;49.158;8.632;2022-07-17T15:04:09;1.83;;;0.90;;
19149;SDS011;9707;49.158;8.632;2022-07-17T15:06:37;2.90;;;0.90;;
19149;SDS011;9707;49.158;8.632;2022-07-17T15:09:03;1.48;;;1.00;;
19149;SDS011;9707;49.158;8.632;2022-07-17T15:11:29;1.83;;;1.02;;
19149;SDS011;9707;49.158;8.632;2022-07-17T15:13:54;1.15;;;0.95;;
19149;SDS011;9707;49.158;8.632;2022-07-17T15:16:19;1.38;;;1.00;;
19149;SDS011;9707;49.158;8.632;2022-07-17T15:18:45;2.42;;;1.30;;
19149;SDS011;9707;49.158;8.632;2022-07-17T15:21:12;1.67;;;0.90;;
19149;SDS011;9707;49.158;8.632;2022-07-17T15:23:38;1.55;;;1.05;;
19149;SDS011;9707;49.158;8.632;2022-07-17T15:26:03;2.38;;;1.00;;
19149;SDS011;9707;49.158;8.632;2022-07-17T15:28:28;1.48;;;0.90;;
19149;SDS011;9707;49.158;8.632;2022-07-17T15:30:54;1.45;;;0.90;;
19149;SDS011;9707;49.158;8.632;2022-07-17T15:33:19;1.38;;;1.02;;